Aviation Digital Data Service (ADDS)

Output produced by METARs form (1915 UTC 23 April 2018)
found at http://www.aviationweather.gov/adds/metars/
 
KLBE 231850Z 18010G22KT 10SM FEW041 20/02 A3027
KLBE 231750Z 18012G25KT 10SM SKC 20/03 A3028
KLBE 231650Z 12010G25KT 10SM SKC 19/03 A3029
KLBE 231550Z 18010G17KT 10SM SKC 19/03 A3031
KLBE 231445Z 18011KT 10SM SKC 17/04 A3033
KLBE 231350Z 09010KT 10SM SKC 15/04 A3033
KLBE 231245Z 10006KT 10SM SKC 13/03 A3034
KLBE 231145Z 01006KT 10SM SKC 12/03 A3033
KLBE 231045Z 09007KT 10SM SKC 11/03 A3031
KLBE 230955Z AUTO 00000KT 10SM CLR 11/03 A3029 RMK AO2
KLBE 230935Z AUTO 13004KT 10SM CLR 12/03 A3029 RMK AO2
KLBE 230915Z AUTO 11004KT 10SM CLR 12/03 A3028 RMK AO2
KLBE 230855Z AUTO 10009KT 10SM CLR 12/03 A3029 RMK AO2
KLBE 230835Z AUTO 09005KT 10SM CLR 12/03 A3029 RMK AO2
KLBE 230815Z AUTO 08005KT 10SM CLR 12/03 A3029 RMK AO2
KLBE 230755Z AUTO 11008KT 10SM CLR 12/03 A3029 RMK AO2
KLBE 230735Z AUTO 11008G15KT 10SM CLR 12/02 A3029 RMK AO2
KLBE 230715Z AUTO 10008KT 10SM CLR 12/03 A3029 RMK AO2
KLBE 230655Z AUTO 11008G15KT 070V130 10SM CLR 12/02 A3029 RMK AO2
KLBE 230635Z AUTO 10008G19KT 10SM CLR 12/02 A3029 RMK AO2
KLBE 230615Z AUTO 11009KT 10SM CLR 12/02 A3029 RMK AO2
KLBE 230555Z AUTO 10008G15KT 2 1/2SM HZ CLR 12/02 A3030 RMK AO2 VSBY 1 3/4V3
KLBE 230535Z AUTO 10009G16KT 070V130 3SM HZ CLR 13/02 A3029 RMK AO2
KLBE 230515Z AUTO 11009G16KT 3SM HZ CLR 13/02 A3030 RMK AO2
KLBE 230455Z AUTO 11007G15KT 3SM HZ CLR 13/02 A3030 RMK AO2
KLBE 230435Z AUTO 11008G15KT 3SM HZ CLR 13/01 A3030 RMK AO2
KLBE 230415Z AUTO 09008KT 7SM CLR 13/01 A3030 RMK AO2
KLBE 230355Z AUTO 11008G19KT 1 3/4SM HZ CLR 13/00 A3030 RMK AO2
KLBE 230335Z AUTO 10007KT 2SM HZ CLR 13/00 A3030 RMK AO2
KLBE 230315Z AUTO 10007KT 5SM HZ CLR 13/00 A3030 RMK AO2
KLBE 230255Z AUTO 09008KT 9SM CLR 14/00 A3030 RMK AO2
KLBE 230235Z AUTO 11007KT 10SM CLR 14/00 A3030 RMK AO2
KLBE 230215Z AUTO 10006KT 10SM CLR 14/00 A3030 RMK AO2
KLBE 230147Z 12008KT 20SM SKC 14/M01 A3029
KLBE 230047Z 09010KT 20SM SKC 15/M02 A3020
KLBE 222347Z 09010KT 20SM SKC 17/M02 A3027
KLBE 222247Z 10005KT 20SM SKC 19/M03 A3026
KLBE 222147Z 07006KT 20SM SKC 19/M01 A3026
KLBE 222047Z 10006KT 20SM SCT200 19/M02 A3026
KLBE 221947Z 00000KT 20SM BKN200 18/M03 A3028